createdAt,value
2023-05-10T00:00:28.890Z,20.03
2023-05-10T00:02:55.362Z,20.04
2023-05-10T00:05:21.813Z,20.02
2023-05-10T00:07:48.262Z,20.03
2023-05-10T00:10:15.047Z,20.05
2023-05-10T00:12:41.899Z,20.03
2023-05-10T00:15:09.262Z,20.03
2023-05-10T00:17:35.778Z,20.03
2023-05-10T00:20:02.246Z,20.03
2023-05-10T00:22:28.658Z,20.03
2023-05-10T00:24:55.063Z,20.03
2023-05-10T00:27:21.475Z,20.03
2023-05-10T00:29:48.046Z,20.02
2023-05-10T00:32:14.953Z,20.03
2023-05-10T00:34:41.667Z,20.04
2023-05-10T00:37:08.145Z,20.04
2023-05-10T00:39:34.600Z,20.03
2023-05-10T00:42:01.262Z,20.03
2023-05-10T00:44:27.678Z,20.04
2023-05-10T00:46:54.178Z,20.05
2023-05-10T00:49:21.565Z,20.05
2023-05-10T00:51:48.129Z,20.06
2023-05-10T00:54:16.158Z,20.06
2023-05-10T00:56:42.791Z,20.08
2023-05-10T00:59:09.821Z,20.06
2023-05-10T01:01:37.177Z,20.10
2023-05-10T01:04:04.390Z,20.07
2023-05-10T01:06:30.803Z,20.09
2023-05-10T01:08:57.390Z,20.10
2023-05-10T01:11:23.791Z,20.11
2023-05-10T01:13:57.805Z,20.11
2023-05-10T01:16:25.740Z,20.11
2023-05-10T01:18:52.999Z,20.10
2023-05-10T01:21:48.445Z,20.10
2023-05-10T01:24:39.311Z,20.09
2023-05-10T01:27:35.602Z,20.10
2023-05-10T01:30:16.138Z,20.11
2023-05-10T01:32:51.693Z,20.09
2023-05-10T01:35:23.550Z,20.09
2023-05-10T01:37:58.710Z,20.10
2023-05-10T01:40:48.677Z,20.09
2023-05-10T01:43:24.249Z,20.09
2023-05-10T01:46:22.957Z,20.07
2023-05-10T01:48:53.285Z,20.09
2023-05-10T01:51:28.562Z,20.07
2023-05-10T01:54:01.724Z,20.09
2023-05-10T01:56:31.743Z,20.07
2023-05-10T01:58:59.541Z,20.09
2023-05-10T02:01:27.562Z,20.09
2023-05-10T02:03:54.936Z,20.07
2023-05-10T02:06:23.569Z,20.09
2023-05-10T02:08:52.075Z,20.09
2023-05-10T02:11:21.996Z,20.09
2023-05-10T02:13:50.920Z,20.08
2023-05-10T02:16:19.264Z,20.06
2023-05-10T02:18:47.892Z,20.07
2023-05-10T02:21:16.699Z,20.09
2023-05-10T02:23:44.510Z,20.07
2023-05-10T02:26:12.959Z,20.07
2023-05-10T02:28:41.393Z,20.07
2023-05-10T02:31:08.443Z,20.06
2023-05-10T02:33:35.761Z,20.04
2023-05-10T02:36:04.195Z,20.06
2023-05-10T02:38:32.672Z,20.04
2023-05-10T02:41:00.537Z,20.05
2023-05-10T02:43:28.449Z,20.04
2023-05-10T02:45:55.000Z,20.05
2023-05-10T02:48:21.497Z,20.04
2023-05-10T02:50:52.323Z,20.03
2023-05-10T02:53:32.838Z,20.05
2023-05-10T02:56:02.349Z,20.03
2023-05-10T02:58:28.795Z,20.04
2023-05-10T03:00:55.347Z,20.05
2023-05-10T03:03:22.087Z,20.02
2023-05-10T03:05:48.506Z,20.04
2023-05-10T03:08:14.938Z,20.04
2023-05-10T03:11:22.868Z,20.05
2023-05-10T03:14:28.436Z,20.04
2023-05-10T03:17:05.243Z,20.02
2023-05-10T03:19:44.293Z,20.03
2023-05-10T03:22:12.431Z,20.01
2023-05-10T03:24:42.187Z,20.02
2023-05-10T03:27:09.385Z,20.02
2023-05-10T03:29:36.372Z,20.01
2023-05-10T03:32:03.191Z,20.02
2023-05-10T03:34:31.421Z,20.01
2023-05-10T03:36:58.009Z,20.02
2023-05-10T03:39:25.839Z,20.00
2023-05-10T03:41:52.253Z,20.01
2023-05-10T03:44:18.714Z,20.01
2023-05-10T03:46:45.264Z,20.02
2023-05-10T03:49:11.687Z,20.02
2023-05-10T03:51:38.261Z,20.00
2023-05-10T03:54:04.776Z,20.00
2023-05-10T03:56:31.197Z,19.99
2023-05-10T03:58:57.612Z,20.00
2023-05-10T04:01:24.101Z,19.99
2023-05-10T04:03:50.647Z,19.99
2023-05-10T04:06:17.678Z,19.97
2023-05-10T04:08:44.179Z,19.99
2023-05-10T04:11:12.089Z,19.98
2023-05-10T04:13:39.165Z,19.99
2023-05-10T04:16:06.074Z,20.01
2023-05-10T04:18:32.870Z,19.98
2023-05-10T04:20:59.281Z,20.00
2023-05-10T04:23:25.703Z,19.99
2023-05-10T04:25:52.162Z,19.98
2023-05-10T04:28:18.620Z,19.99
2023-05-10T04:30:45.084Z,19.98
2023-05-10T04:33:11.500Z,19.97
2023-05-10T04:35:37.964Z,19.98
2023-05-10T04:38:04.399Z,19.97
2023-05-10T04:40:30.933Z,19.97
2023-05-10T04:42:57.481Z,19.95
2023-05-10T04:45:24.025Z,19.97
2023-05-10T04:47:50.588Z,19.97
2023-05-10T04:50:20.028Z,19.96
2023-05-10T04:52:46.695Z,19.95
2023-05-10T04:55:13.116Z,19.95
2023-05-10T04:57:39.673Z,19.95
2023-05-10T05:00:06.763Z,19.95
2023-05-10T05:02:33.283Z,19.94
2023-05-10T05:04:59.852Z,19.94
2023-05-10T05:07:26.333Z,19.92
2023-05-10T05:09:52.740Z,19.92
2023-05-10T05:12:19.133Z,19.91
2023-05-10T05:14:45.636Z,19.90
2023-05-10T05:17:12.084Z,19.91
2023-05-10T05:19:38.542Z,19.93
2023-05-10T05:22:07.272Z,19.93
2023-05-10T05:24:39.029Z,19.97
2023-05-10T05:27:05.750Z,19.96
2023-05-10T05:29:32.211Z,19.94
2023-05-10T05:31:58.847Z,19.95
2023-05-10T05:34:25.400Z,19.93
2023-05-10T05:36:51.933Z,19.95
2023-05-10T05:39:18.385Z,19.94
2023-05-10T05:41:44.949Z,19.97
2023-05-10T05:44:11.360Z,19.97
2023-05-10T05:46:37.864Z,20.02
2023-05-10T05:49:04.289Z,20.07
2023-05-10T05:51:30.720Z,20.02
2023-05-10T05:53:57.130Z,20.02
2023-05-10T05:56:26.556Z,19.96
2023-05-10T05:58:53.074Z,19.96
2023-05-10T06:01:19.642Z,20.01
2023-05-10T06:03:46.292Z,19.99
2023-05-10T06:06:13.493Z,19.93
2023-05-10T06:08:39.956Z,19.94
2023-05-10T06:11:06.380Z,19.95
2023-05-10T06:13:34.294Z,19.96
2023-05-10T06:16:01.373Z,19.96
2023-05-10T06:18:27.851Z,19.94
2023-05-10T06:20:54.319Z,19.96
2023-05-10T06:23:20.788Z,19.93
2023-05-10T06:25:47.660Z,19.91
2023-05-10T06:28:14.159Z,19.92
2023-05-10T06:30:40.656Z,19.92
2023-05-10T06:33:07.244Z,19.91
2023-05-10T06:35:34.515Z,19.93
2023-05-10T06:38:01.116Z,19.92
2023-05-10T06:40:27.756Z,19.93
2023-05-10T06:42:54.172Z,19.92
2023-05-10T06:45:20.958Z,19.92
2023-05-10T06:47:47.937Z,19.93
2023-05-10T06:50:14.506Z,19.94
2023-05-10T06:52:41.062Z,19.92
2023-05-10T06:55:08.019Z,19.92
2023-05-10T06:57:34.454Z,19.93
2023-05-10T07:00:01.056Z,19.93
2023-05-10T07:02:27.734Z,19.93
2023-05-10T07:04:54.429Z,19.94
2023-05-10T07:07:20.947Z,19.93
2023-05-10T07:09:53.574Z,19.91
2023-05-10T07:12:20.150Z,19.91
2023-05-10T07:14:46.825Z,19.91
2023-05-10T07:17:13.476Z,19.92
2023-05-10T07:19:39.994Z,19.91
2023-05-10T07:22:06.502Z,19.92
2023-05-10T07:24:33.363Z,19.91
2023-05-10T07:26:59.833Z,19.91
2023-05-10T07:29:26.864Z,19.92
2023-05-10T07:31:55.290Z,19.92
2023-05-10T07:34:23.025Z,19.91
2023-05-10T07:36:49.552Z,19.93
2023-05-10T07:39:24.424Z,19.93
2023-05-10T07:41:53.392Z,19.91
2023-05-10T07:44:23.798Z,19.91
2023-05-10T07:46:50.326Z,19.90
2023-05-10T07:49:17.008Z,19.91
2023-05-10T07:51:43.730Z,19.89
2023-05-10T07:54:10.264Z,19.87
2023-05-10T07:56:37.144Z,19.86
2023-05-10T07:59:09.296Z,19.87
2023-05-10T08:01:36.820Z,19.87
2023-05-10T08:04:03.523Z,19.87
2023-05-10T08:06:31.024Z,19.86
2023-05-10T08:08:57.820Z,19.88
2023-05-10T08:11:24.652Z,19.89
2023-05-10T08:13:51.709Z,19.88
2023-05-10T08:16:18.468Z,19.87
2023-05-10T08:18:46.648Z,19.87
2023-05-10T08:21:14.671Z,19.87
2023-05-10T08:23:41.645Z,19.85
2023-05-10T08:26:08.101Z,19.87
2023-05-10T08:28:35.699Z,19.86
2023-05-10T08:31:02.173Z,19.85
2023-05-10T08:33:28.654Z,19.83
2023-05-10T08:35:55.147Z,19.90
2023-05-10T08:38:21.677Z,19.91
2023-05-10T08:40:50.376Z,19.97
2023-05-10T08:43:16.983Z,20.01
2023-05-10T08:45:48.776Z,20.05
2023-05-10T08:48:16.583Z,20.09
2023-05-10T08:50:44.017Z,20.12
2023-05-10T08:53:12.334Z,20.19
2023-05-10T08:55:39.762Z,20.23
2023-05-10T08:58:07.126Z,20.27
2023-05-10T09:00:34.184Z,20.36
2023-05-10T09:03:01.622Z,20.39
2023-05-10T09:05:28.453Z,20.47
2023-05-10T09:07:54.940Z,20.52
2023-05-10T09:10:22.597Z,20.61
2023-05-10T09:12:49.553Z,20.68
2023-05-10T09:15:20.294Z,20.74
2023-05-10T09:17:48.192Z,20.77
2023-05-10T09:20:14.818Z,20.80
2023-05-10T09:22:41.900Z,20.83
2023-05-10T09:25:10.067Z,20.87
2023-05-10T09:27:37.244Z,20.90
2023-05-10T09:30:06.143Z,20.89
2023-05-10T09:32:46.808Z,20.93
2023-05-10T09:35:19.179Z,20.93
2023-05-10T09:37:48.900Z,20.96
2023-05-10T09:40:20.327Z,20.99
2023-05-10T09:42:54.327Z,21.01
2023-05-10T09:45:21.059Z,20.92
2023-05-10T09:47:50.911Z,20.85
2023-05-10T09:50:18.003Z,20.98
2023-05-10T09:52:52.426Z,21.05
2023-05-10T09:55:21.191Z,21.07
2023-05-10T09:57:49.317Z,21.16
2023-05-10T10:00:21.655Z,21.23
2023-05-10T10:03:01.128Z,21.24
2023-05-10T10:05:34.849Z,21.27
2023-05-10T10:08:03.242Z,21.17
2023-05-10T10:10:30.105Z,21.20
2023-05-10T10:12:56.672Z,21.21
2023-05-10T10:15:23.987Z,21.24
2023-05-10T10:17:51.824Z,21.20
2023-05-10T10:20:20.627Z,21.27
2023-05-10T10:22:48.312Z,21.29
2023-05-10T10:25:17.127Z,21.23
2023-05-10T10:27:56.260Z,21.25
2023-05-10T10:30:31.745Z,21.36
2023-05-10T10:33:13.273Z,21.45
2023-05-10T10:35:47.793Z,21.37
2023-05-10T10:38:14.794Z,21.40
2023-05-10T10:40:41.382Z,21.37
2023-05-10T10:43:27.797Z,21.41
2023-05-10T10:46:18.038Z,21.50
2023-05-10T10:49:09.359Z,21.45
2023-05-10T10:51:39.701Z,21.43
2023-05-10T10:54:12.570Z,21.45
2023-05-10T10:56:39.196Z,21.43
2023-05-10T10:59:05.678Z,21.37
2023-05-10T11:01:36.417Z,21.28
2023-05-10T11:04:05.962Z,21.21
2023-05-10T11:06:37.138Z,21.17
2023-05-10T11:09:10.197Z,21.09
2023-05-10T11:11:37.561Z,21.03
2023-05-10T11:14:08.076Z,21.00
2023-05-10T11:16:45.166Z,20.91
2023-05-10T11:19:13.635Z,20.86
2023-05-10T11:22:14.013Z,20.80
2023-05-10T11:24:40.477Z,20.70
2023-05-10T11:27:07.070Z,20.70
2023-05-10T11:29:33.499Z,20.61
2023-05-10T11:32:00.700Z,20.62
2023-05-10T11:34:34.285Z,20.58
2023-05-10T11:37:01.288Z,20.54
2023-05-10T11:39:29.675Z,20.54
2023-05-10T11:41:56.409Z,20.57
2023-05-10T11:44:23.492Z,20.57
2023-05-10T11:46:50.317Z,20.55
2023-05-10T11:49:16.873Z,20.53
2023-05-10T11:51:44.599Z,20.53
2023-05-10T11:54:12.334Z,20.51
2023-05-10T11:56:40.832Z,20.49
2023-05-10T11:59:08.914Z,20.52
2023-05-10T12:01:36.142Z,20.54
2023-05-10T12:04:03.000Z,20.55
2023-05-10T12:06:32.831Z,20.54
2023-05-10T12:09:00.230Z,20.53
2023-05-10T12:11:28.670Z,20.51
2023-05-10T12:13:56.442Z,20.52
2023-05-10T12:16:29.129Z,20.49
2023-05-10T12:18:59.044Z,20.52
2023-05-10T12:21:26.218Z,20.52
2023-05-10T12:24:00.519Z,20.50
2023-05-10T12:26:30.147Z,20.49
2023-05-10T12:29:13.155Z,20.44
2023-05-10T12:31:52.703Z,20.39
2023-05-10T12:34:26.715Z,20.35
2023-05-10T12:36:56.591Z,20.36
2023-05-10T12:39:23.311Z,20.34
2023-05-10T12:41:49.762Z,20.32
2023-05-10T12:44:18.736Z,20.30
2023-05-10T12:46:45.102Z,20.30
2023-05-10T12:49:11.540Z,20.30
2023-05-10T12:51:37.947Z,20.32
2023-05-10T12:54:04.628Z,20.30
2023-05-10T12:56:31.080Z,20.28
2023-05-10T12:58:57.452Z,20.30
2023-05-10T13:01:23.950Z,20.28
2023-05-10T13:03:50.600Z,20.27
2023-05-10T13:06:16.996Z,20.25
2023-05-10T13:08:43.393Z,20.24
2023-05-10T13:11:09.796Z,20.23
2023-05-10T13:13:36.191Z,20.23
2023-05-10T13:16:02.622Z,20.22
2023-05-10T13:18:29.143Z,20.20
2023-05-10T13:20:56.696Z,20.16
2023-05-10T13:23:23.495Z,20.15
2023-05-10T13:25:49.901Z,20.16
2023-05-10T13:28:18.405Z,20.16
2023-05-10T13:30:44.875Z,20.16
2023-05-10T13:33:11.340Z,20.17
2023-05-10T13:35:37.776Z,20.19
2023-05-10T13:38:04.275Z,20.21
2023-05-10T13:40:30.655Z,20.21
2023-05-10T13:42:57.134Z,20.19
2023-05-10T13:45:23.655Z,20.18
2023-05-10T13:47:50.425Z,20.19
2023-05-10T13:50:20.279Z,20.15
2023-05-10T13:52:46.739Z,20.14
2023-05-10T13:55:14.175Z,20.15
2023-05-10T13:57:40.603Z,20.15
2023-05-10T14:00:07.678Z,20.10
2023-05-10T14:02:34.096Z,20.10
2023-05-10T14:05:01.157Z,20.12
2023-05-10T14:07:27.543Z,20.11
2023-05-10T14:09:53.923Z,20.11
2023-05-10T14:12:20.318Z,20.14
2023-05-10T14:14:46.772Z,20.15
2023-05-10T14:17:13.189Z,20.16
2023-05-10T14:19:39.774Z,20.15
2023-05-10T14:22:06.529Z,20.13
2023-05-10T14:24:33.362Z,20.12
2023-05-10T14:26:59.737Z,20.10
2023-05-10T14:29:26.153Z,20.10
2023-05-10T14:31:52.691Z,20.10
2023-05-10T14:34:19.177Z,20.10
2023-05-10T14:36:45.555Z,20.07
2023-05-10T14:39:13.720Z,20.09
2023-05-10T14:41:42.474Z,20.11
2023-05-10T14:44:08.852Z,20.14
2023-05-10T14:46:35.567Z,20.15
2023-05-10T14:49:02.069Z,20.20
2023-05-10T14:51:28.614Z,20.21
2023-05-10T14:53:55.228Z,20.24
2023-05-10T14:56:22.523Z,20.30
2023-05-10T14:58:50.648Z,20.28
2023-05-10T15:01:17.288Z,20.34
2023-05-10T15:03:44.019Z,20.38
2023-05-10T15:06:11.604Z,20.42
2023-05-10T15:08:37.989Z,20.54
2023-05-10T15:11:04.442Z,20.55
2023-05-10T15:13:30.828Z,20.62
2023-05-10T15:15:57.320Z,20.72
2023-05-10T15:18:26.889Z,20.82
2023-05-10T15:20:53.317Z,20.82
2023-05-10T15:23:19.720Z,20.89
2023-05-10T15:25:47.280Z,20.96
2023-05-10T15:28:13.713Z,20.96
2023-05-10T15:30:40.122Z,20.99
2023-05-10T15:33:06.613Z,20.95
2023-05-10T15:35:33.290Z,20.93
2023-05-10T15:37:59.700Z,20.86
2023-05-10T15:40:26.120Z,20.87
2023-05-10T15:42:52.674Z,20.88
2023-05-10T15:45:19.225Z,20.83
2023-05-10T15:47:46.524Z,20.79
2023-05-10T15:50:13.008Z,20.74
2023-05-10T15:52:39.523Z,20.70
2023-05-10T15:55:12.682Z,20.70
2023-05-10T15:57:40.826Z,20.64
2023-05-10T16:00:09.144Z,20.63
2023-05-10T16:02:36.067Z,20.65
2023-05-10T16:05:02.570Z,20.65
2023-05-10T16:07:29.156Z,20.58
2023-05-10T16:09:55.792Z,20.54
2023-05-10T16:12:22.451Z,20.52
2023-05-10T16:14:49.027Z,20.54
2023-05-10T16:17:15.725Z,20.52
2023-05-10T16:19:42.340Z,20.49
2023-05-10T16:22:08.835Z,20.48
2023-05-10T16:24:35.290Z,20.45
2023-05-10T16:27:01.714Z,20.47
2023-05-10T16:29:28.131Z,20.47
2023-05-10T16:31:54.891Z,20.46
2023-05-10T16:34:24.296Z,20.46
2023-05-10T16:36:51.467Z,20.44
2023-05-10T16:39:17.944Z,20.45
2023-05-10T16:41:44.675Z,20.44
2023-05-10T16:44:11.154Z,20.39
2023-05-10T16:46:37.800Z,20.42
2023-05-10T16:49:04.503Z,20.44
2023-05-10T16:51:31.460Z,20.46
2023-05-10T16:53:57.876Z,20.50
2023-05-10T16:56:24.595Z,20.52
2023-05-10T16:58:51.377Z,20.55
2023-05-10T17:01:18.349Z,20.59
2023-05-10T17:03:45.021Z,20.61
2023-05-10T17:06:12.016Z,20.65
2023-05-10T17:08:38.512Z,20.68
2023-05-10T17:11:05.016Z,20.71
2023-05-10T17:13:31.962Z,20.72
2023-05-10T17:15:58.558Z,20.75
2023-05-10T17:18:26.659Z,20.75
2023-05-10T17:20:53.233Z,20.74
2023-05-10T17:23:19.724Z,20.76
2023-05-10T17:25:46.239Z,20.74
2023-05-10T17:28:12.782Z,20.75
2023-05-10T17:30:39.219Z,20.73
2023-05-10T17:33:05.831Z,20.70
2023-05-10T17:35:32.345Z,20.72
2023-05-10T17:37:58.828Z,20.75
2023-05-10T17:40:25.519Z,20.72
2023-05-10T17:42:52.157Z,20.76
2023-05-10T17:45:19.028Z,20.76
2023-05-10T17:47:45.887Z,20.76
2023-05-10T17:50:12.396Z,20.73
2023-05-10T17:52:38.875Z,20.72
2023-05-10T17:55:05.794Z,20.71
2023-05-10T17:57:32.259Z,20.72
2023-05-10T17:59:58.700Z,20.71
2023-05-10T18:02:25.121Z,20.71
2023-05-10T18:04:51.702Z,20.69
2023-05-10T18:07:18.227Z,20.68
2023-05-10T18:09:44.643Z,20.67
2023-05-10T18:12:11.104Z,20.66
2023-05-10T18:14:41.193Z,20.65
2023-05-10T18:17:09.404Z,20.62
2023-05-10T18:19:35.986Z,20.61
2023-05-10T18:22:02.762Z,20.58
2023-05-10T18:24:38.213Z,20.57
2023-05-10T18:27:06.696Z,20.57
2023-05-10T18:29:33.240Z,20.55
2023-05-10T18:31:59.697Z,20.56
2023-05-10T18:34:26.155Z,20.54
2023-05-10T18:36:52.984Z,20.50
2023-05-10T18:39:19.556Z,20.49
2023-05-10T18:41:46.239Z,20.47
2023-05-10T18:44:12.733Z,20.46
2023-05-10T18:46:39.508Z,20.45
2023-05-10T18:49:08.320Z,20.45
2023-05-10T18:51:34.804Z,20.44
2023-05-10T18:54:01.396Z,20.39
2023-05-10T18:56:27.929Z,20.37
2023-05-10T18:58:54.424Z,20.37
2023-05-10T19:01:21.321Z,20.34
2023-05-10T19:03:47.887Z,20.31
2023-05-10T19:06:14.361Z,20.29
2023-05-10T19:08:40.947Z,20.27
2023-05-10T19:11:07.448Z,20.23
2023-05-10T19:13:34.285Z,20.22
2023-05-10T19:16:15.975Z,20.23
2023-05-10T19:18:44.057Z,20.20
2023-05-10T19:21:11.434Z,20.20
2023-05-10T19:23:40.340Z,20.17
2023-05-10T19:26:07.294Z,20.14
2023-05-10T19:28:34.251Z,20.13
2023-05-10T19:31:02.154Z,20.12
2023-05-10T19:33:29.143Z,20.10
2023-05-10T19:35:55.819Z,20.07
2023-05-10T19:38:23.567Z,20.10
2023-05-10T19:40:51.053Z,20.09
2023-05-10T19:43:17.777Z,20.06
2023-05-10T19:45:44.382Z,20.05
2023-05-10T19:48:12.457Z,20.05
2023-05-10T19:50:38.951Z,20.03
2023-05-10T19:53:05.353Z,20.03
2023-05-10T19:55:32.532Z,20.01
2023-05-10T19:58:02.495Z,20.00
2023-05-10T20:00:29.282Z,19.99
2023-05-10T20:02:55.998Z,19.97
2023-05-10T20:05:22.784Z,19.95
2023-05-10T20:07:49.366Z,19.96
2023-05-10T20:10:17.115Z,19.94
2023-05-10T20:12:52.485Z,19.94
2023-05-10T20:15:21.492Z,19.93
2023-05-10T20:17:48.542Z,19.93
2023-05-10T20:20:18.521Z,19.92
2023-05-10T20:22:45.630Z,19.92
2023-05-10T20:25:13.082Z,19.92
2023-05-10T20:27:39.555Z,19.94
2023-05-10T20:30:07.055Z,19.92
2023-05-10T20:32:34.632Z,19.95
2023-05-10T20:35:01.478Z,19.99
2023-05-10T20:37:28.280Z,19.94
2023-05-10T20:39:55.250Z,19.93
2023-05-10T20:42:21.962Z,19.92
2023-05-10T20:44:48.565Z,19.94
2023-05-10T20:47:15.938Z,19.93
2023-05-10T20:49:42.717Z,19.94
2023-05-10T20:52:09.533Z,19.93
2023-05-10T20:54:35.931Z,19.93
2023-05-10T20:57:02.395Z,19.93
2023-05-10T20:59:29.355Z,19.92
2023-05-10T21:01:56.962Z,19.95
2023-05-10T21:04:24.574Z,19.95
2023-05-10T21:06:51.287Z,19.95
2023-05-10T21:09:17.889Z,19.93
2023-05-10T21:11:44.493Z,19.93
2023-05-10T21:14:11.001Z,19.92
2023-05-10T21:16:37.457Z,19.92
2023-05-10T21:19:04.047Z,19.92
2023-05-10T21:21:31.079Z,19.94
2023-05-10T21:23:57.605Z,19.94
2023-05-10T21:26:24.074Z,19.95
2023-05-10T21:28:50.601Z,19.93
2023-05-10T21:31:17.124Z,19.94
2023-05-10T21:33:43.653Z,19.95
2023-05-10T21:36:10.177Z,19.94
2023-05-10T21:38:36.695Z,19.95
2023-05-10T21:41:07.065Z,19.94
2023-05-10T21:43:33.782Z,19.95
2023-05-10T21:46:00.260Z,19.96
2023-05-10T21:48:26.732Z,19.95
2023-05-10T21:50:53.171Z,19.95
2023-05-10T21:53:19.673Z,19.96
2023-05-10T21:55:47.320Z,19.95
2023-05-10T21:58:13.715Z,19.95
2023-05-10T22:00:40.183Z,19.94
2023-05-10T22:03:06.727Z,19.91
2023-05-10T22:05:33.363Z,19.90
2023-05-10T22:07:59.835Z,19.92
2023-05-10T22:10:26.270Z,19.92
2023-05-10T22:12:52.813Z,19.91
2023-05-10T22:15:19.292Z,19.92
2023-05-10T22:17:45.758Z,19.92
2023-05-10T22:20:12.548Z,19.90
2023-05-10T22:22:39.068Z,19.87
2023-05-10T22:25:07.404Z,19.90
2023-05-10T22:27:33.995Z,19.90
2023-05-10T22:30:00.492Z,19.89
2023-05-10T22:32:27.180Z,19.88
2023-05-10T22:34:53.699Z,19.89
2023-05-10T22:37:20.196Z,19.89
2023-05-10T22:39:46.888Z,19.90
2023-05-10T22:42:13.386Z,19.85
2023-05-10T22:44:39.800Z,19.83
2023-05-10T22:47:09.107Z,19.83
2023-05-10T22:49:35.648Z,19.84
2023-05-10T22:52:02.365Z,19.83
2023-05-10T22:54:28.850Z,19.83
2023-05-10T22:56:56.482Z,19.85
2023-05-10T22:59:23.112Z,19.86
2023-05-10T23:01:49.628Z,19.87
2023-05-10T23:04:16.212Z,19.86
2023-05-10T23:06:42.644Z,19.84
2023-05-10T23:09:09.823Z,19.81
2023-05-10T23:11:36.493Z,19.81
2023-05-10T23:14:03.147Z,19.82
2023-05-10T23:16:30.585Z,19.84
2023-05-10T23:18:57.373Z,19.84
2023-05-10T23:21:25.253Z,19.83
2023-05-10T23:23:52.453Z,19.83
2023-05-10T23:26:18.971Z,19.83
2023-05-10T23:28:45.396Z,19.82
2023-05-10T23:31:11.811Z,19.82
2023-05-10T23:33:38.314Z,19.81
2023-05-10T23:36:05.114Z,19.81
2023-05-10T23:38:31.551Z,19.82
2023-05-10T23:40:58.009Z,19.82
2023-05-10T23:43:25.405Z,19.81
2023-05-10T23:45:58.585Z,19.82
2023-05-10T23:48:25.272Z,19.82
2023-05-10T23:50:51.783Z,19.82
2023-05-10T23:53:18.379Z,19.81
2023-05-10T23:55:45.442Z,19.82
2023-05-10T23:58:12.544Z,19.82
